Time;durP1;ratioP1;P1;durP2;ratioP2;P2;SDS_P1;SDS_P2;PMS_P1;PMS_P2;Temp;Humidity;BMP_temperature;BMP_pressure;BME280_temperature;BME280_humidity;BME280_pressure;Samples;Min_cycle;Max_cycle;Signal;HPM_P1;HPM_P2
2023/08/28 00:00:31;;;;;;;44.13;7.07;;;28.00;50.30;;;;;;5054978;28;20313;-73
2023/08/28 00:02:59;;;;;;;56.60;8.00;;;28.00;50.30;;;;;;5051279;28;20207;-74
2023/08/28 00:05:26;;;;;;;25.67;5.40;;;28.00;50.30;;;;;;5071312;28;20754;-73
2023/08/28 00:07:54;;;;;;;19.40;4.70;;;28.00;50.30;;;;;;5079154;28;20199;-73
2023/08/28 00:10:21;;;;;;;33.40;6.17;;;28.00;50.30;;;;;;5069066;28;20740;-73
2023/08/28 00:12:48;;;;;;;26.47;5.57;;;28.00;50.30;;;;;;5067640;28;20310;-74
2023/08/28 00:15:15;;;;;;;18.97;4.70;;;28.00;50.30;;;;;;5069038;28;20210;-74
2023/08/28 00:17:42;;;;;;;26.80;5.60;;;27.90;50.20;;;;;;5068082;28;20318;-74
2023/08/28 00:20:11;;;;;;;30.57;5.67;;;28.00;50.30;;;;;;5069134;28;20219;-73
2023/08/28 00:22:38;;;;;;;22.57;5.37;;;27.90;50.80;;;;;;5070948;28;20228;-74
2023/08/28 00:25:06;;;;;;;24.40;5.57;;;27.90;50.30;;;;;;5069108;28;20280;-73
2023/08/28 00:27:33;;;;;;;25.07;5.53;;;27.90;50.30;;;;;;5066903;28;20206;-74
2023/08/28 00:30:00;;;;;;;40.63;6.70;;;27.90;50.30;;;;;;5065983;28;20265;-74
2023/08/28 00:32:27;;;;;;;26.60;5.30;;;27.90;50.30;;;;;;5067201;28;20279;-74
2023/08/28 00:34:55;;;;;;;23.47;5.30;;;27.90;50.30;;;;;;5068298;28;20219;-75
2023/08/28 00:37:23;;;;;;;22.70;5.20;;;27.90;50.30;;;;;;5062154;28;20319;-74
2023/08/28 00:39:50;;;;;;;30.77;6.03;;;27.80;50.30;;;;;;5047282;28;20283;-75
2023/08/28 00:42:17;;;;;;;31.67;6.13;;;27.80;50.30;;;;;;5058312;28;20282;-74
2023/08/28 00:44:44;;;;;;;24.57;5.37;;;27.80;50.30;;;;;;5067540;28;20278;-74
2023/08/28 00:47:13;;;;;;;24.53;5.23;;;27.80;50.40;;;;;;5057444;28;20200;-73
2023/08/28 00:49:41;;;;;;;24.97;5.30;;;27.80;50.40;;;;;;5048538;28;20291;-75
2023/08/28 00:52:08;;;;;;;33.00;6.27;;;27.80;51.00;;;;;;5050404;28;21016;-74
2023/08/28 00:54:40;;;;;;;28.53;5.80;;;27.80;50.40;;;;;;5048578;28;20206;-73
2023/08/28 00:57:08;;;;;;;47.67;7.20;;;27.80;51.00;;;;;;5063329;28;20265;-73
2023/08/28 00:59:35;;;;;;;20.87;5.13;;;27.80;50.40;;;;;;5047857;28;20227;-73
2023/08/28 01:02:03;;;;;;;33.70;6.10;;;27.80;50.40;;;;;;5055991;28;20318;-74
2023/08/28 01:04:30;;;;;;;24.90;5.67;;;27.70;50.40;;;;;;5064487;28;20292;-74
2023/08/28 01:07:02;;;;;;;30.97;5.87;;;27.70;50.40;;;;;;5067199;28;20215;-74
2023/08/28 01:09:36;;;;;;;22.00;5.27;;;27.70;50.40;;;;;;5063950;28;20202;-74
2023/08/28 01:12:13;;;;;;;56.33;8.27;;;27.70;50.50;;;;;;5060437;28;20200;-73
2023/08/28 01:14:50;;;;;;;22.73;5.13;;;27.70;50.40;;;;;;5054649;28;20288;-74
2023/08/28 01:17:19;;;;;;;46.13;7.10;;;27.70;50.40;;;;;;5058035;28;20252;-73
2023/08/28 01:19:46;;;;;;;22.27;5.17;;;27.70;50.40;;;;;;5063998;28;20634;-73
2023/08/28 01:22:21;;;;;;;31.97;6.13;;;27.70;50.50;;;;;;5050773;28;20329;-73
2023/08/28 01:24:52;;;;;;;21.20;5.07;;;27.70;50.50;;;;;;5048085;28;20286;-74
2023/08/28 01:27:22;;;;;;;39.70;6.83;;;27.70;51.10;;;;;;5057831;28;20206;-73
2023/08/28 01:30:05;;;;;;;20.80;5.07;;;27.70;50.50;;;;;;5063988;28;20726;-73
2023/08/28 01:32:32;;;;;;;54.47;7.93;;;27.60;50.50;;;;;;5061490;28;20196;-74
2023/08/28 01:35:00;;;;;;;36.17;6.47;;;27.60;50.50;;;;;;5061639;28;20294;-74
2023/08/28 01:37:31;;;;;;;27.57;5.33;;;27.60;50.50;;;;;;5061296;28;20282;-74
2023/08/28 01:40:00;;;;;;;34.03;6.37;;;27.60;50.50;;;;;;5064998;28;20226;-74
2023/08/28 01:42:30;;;;;;;52.03;7.93;;;27.60;50.50;;;;;;5063674;28;20215;-73
2023/08/28 01:44:57;;;;;;;20.13;5.00;;;27.60;50.50;;;;;;5062627;28;20231;-73
2023/08/28 01:47:25;;;;;;;25.17;5.87;;;27.60;50.50;;;;;;5069866;28;21225;-73
2023/08/28 01:49:54;;;;;;;35.30;6.63;;;27.60;50.50;;;;;;5068365;28;20290;-74
2023/08/28 01:52:21;;;;;;;45.30;7.27;;;27.50;50.50;;;;;;5068673;28;20218;-74
2023/08/28 01:54:48;;;;;;;48.23;7.57;;;27.50;50.50;;;;;;5058617;28;20378;-74
2023/08/28 01:57:15;;;;;;;29.17;5.60;;;27.50;50.50;;;;;;5068424;28;20278;-73
2023/08/28 01:59:43;;;;;;;29.70;5.90;;;27.50;50.50;;;;;;5074969;28;20237;-74
2023/08/28 02:02:10;;;;;;;28.00;5.53;;;27.50;50.60;;;;;;5053269;28;20300;-73
2023/08/28 02:04:37;;;;;;;30.50;6.10;;;27.50;50.60;;;;;;5062154;28;20294;-74
2023/08/28 02:07:04;;;;;;;27.53;5.53;;;27.50;50.60;;;;;;5056600;28;20200;-73
2023/08/28 02:09:32;;;;;;;24.53;5.53;;;27.50;50.60;;;;;;5071723;28;20238;-73
2023/08/28 02:11:59;;;;;;;27.33;5.73;;;27.50;50.60;;;;;;5069712;28;20241;-74
2023/08/28 02:14:26;;;;;;;25.53;5.47;;;27.50;50.60;;;;;;5071799;28;20211;-73
2023/08/28 02:16:54;;;;;;;24.23;5.23;;;27.50;50.60;;;;;;5071764;28;20306;-74
2023/08/28 02:19:21;;;;;;;27.43;5.57;;;27.40;50.60;;;;;;5071873;28;20241;-74
2023/08/28 02:21:48;;;;;;;29.43;5.87;;;27.40;50.60;;;;;;5071358;28;20234;-77
2023/08/28 02:24:15;;;;;;;24.40;5.30;;;27.40;50.60;;;;;;5070310;28;20192;-77
2023/08/28 02:26:42;;;;;;;38.23;6.37;;;27.40;50.60;;;;;;5070420;28;20294;-75
2023/08/28 02:29:09;;;;;;;27.10;5.27;;;27.40;50.60;;;;;;5061035;28;20302;-75
2023/08/28 02:31:36;;;;;;;24.67;5.57;;;27.40;50.60;;;;;;5073634;28;20206;-73
2023/08/28 02:34:06;;;;;;;22.90;5.43;;;27.40;50.60;;;;;;5061070;28;20230;-74
2023/08/28 02:36:32;;;;;;;41.73;7.20;;;27.40;50.70;;;;;;5060710;28;21465;-75
2023/08/28 02:38:59;;;;;;;68.47;9.07;;;27.40;50.70;;;;;;5050860;28;20204;-74
2023/08/28 02:41:26;;;;;;;30.37;6.07;;;27.40;50.70;;;;;;5050765;28;20228;-75
2023/08/28 02:43:53;;;;;;;25.63;5.23;;;27.40;50.70;;;;;;5051370;28;20291;-75
2023/08/28 02:46:20;;;;;;;27.60;5.83;;;27.40;50.70;;;;;;5070761;28;20291;-74
2023/08/28 02:48:47;;;;;;;42.80;7.30;;;27.40;50.70;;;;;;5051186;28;20196;-74
2023/08/28 02:51:15;;;;;;;17.17;5.00;;;27.40;50.70;;;;;;5056850;28;20199;-74
2023/08/28 02:53:42;;;;;;;31.37;6.10;;;27.40;50.80;;;;;;5060424;28;20278;-74
2023/08/28 02:56:26;;;;;;;20.07;4.93;;;27.40;51.30;;;;;;5053347;28;20210;-73
2023/08/28 02:58:54;;;;;;;30.20;5.83;;;27.40;50.80;;;;;;5057581;28;20220;-74
2023/08/28 03:01:22;;;;;;;55.80;8.07;;;27.30;50.70;;;;;;5050718;28;21877;-74
2023/08/28 03:03:49;;;;;;;24.40;5.47;;;27.30;51.30;;;;;;5058851;28;20293;-74
2023/08/28 03:06:17;;;;;;;24.97;5.57;;;27.30;50.70;;;;;;5066401;28;20295;-74
2023/08/28 03:08:44;;;;;;;27.37;5.93;;;27.40;50.80;;;;;;5057089;28;20287;-74
2023/08/28 03:11:11;;;;;;;52.80;7.97;;;27.30;50.70;;;;;;5068959;28;20315;-74
2023/08/28 03:13:38;;;;;;;26.13;5.30;;;27.30;50.70;;;;;;5064684;28;20196;-74
2023/08/28 03:16:05;;;;;;;37.87;6.70;;;27.30;50.80;;;;;;5066763;28;20290;-75
2023/08/28 03:18:32;;;;;;;34.97;6.43;;;27.30;50.80;;;;;;5068788;28;20204;-74
2023/08/28 03:20:59;;;;;;;25.03;5.57;;;27.30;50.80;;;;;;5067935;28;20317;-73
2023/08/28 03:23:27;;;;;;;50.17;7.57;;;27.30;50.80;;;;;;5057157;28;20199;-74
2023/08/28 03:25:54;;;;;;;27.67;5.47;;;27.30;50.80;;;;;;5049752;28;20196;-73
2023/08/28 03:28:21;;;;;;;21.17;5.13;;;27.30;50.80;;;;;;5062866;28;20196;-74
2023/08/28 03:30:48;;;;;;;58.77;8.47;;;27.20;50.80;;;;;;5067338;28;20282;-74
2023/08/28 03:33:15;;;;;;;24.97;5.40;;;27.20;50.80;;;;;;5059554;28;20202;-73
2023/08/28 03:35:42;;;;;;;26.30;5.73;;;27.20;50.70;;;;;;5072723;28;20215;-76
2023/08/28 03:38:08;;;;;;;22.57;4.93;;;27.20;50.80;;;;;;5069767;28;20235;-74
2023/08/28 03:40:38;;;;;;;36.37;6.57;;;27.20;50.80;;;;;;5064414;28;20195;-74
2023/08/28 03:43:05;;;;;;;40.23;7.00;;;27.20;50.80;;;;;;5066200;28;20281;-73
2023/08/28 03:45:32;;;;;;;27.37;5.53;;;27.20;50.80;;;;;;5049984;28;20239;-74
2023/08/28 03:47:59;;;;;;;23.83;5.33;;;27.20;50.80;;;;;;5049322;28;20207;-74
2023/08/28 03:50:30;;;;;;;25.57;5.37;;;27.20;50.90;;;;;;5048920;28;20283;-74
2023/08/28 03:52:57;;;;;;;25.60;5.37;;;27.20;50.80;;;;;;5054275;28;20249;-74
2023/08/28 03:55:24;;;;;;;46.73;7.37;;;27.20;50.80;;;;;;5049806;28;20740;-74
2023/08/28 03:57:52;;;;;;;27.60;5.80;;;27.20;50.80;;;;;;5057630;28;20307;-74
2023/08/28 04:00:19;;;;;;;20.93;5.00;;;27.10;50.80;;;;;;5049873;28;20655;-74
2023/08/28 04:02:47;;;;;;;24.53;5.53;;;27.10;50.80;;;;;;5054722;28;20302;-74
2023/08/28 04:05:15;;;;;;;65.37;9.00;;;27.10;50.80;;;;;;5056038;28;20291;-77
2023/08/28 04:07:43;;;;;;;35.50;6.17;;;27.10;50.80;;;;;;5060300;28;20204;-74
2023/08/28 04:10:11;;;;;;;36.87;6.63;;;27.10;50.80;;;;;;5058646;28;20203;-74
2023/08/28 04:12:38;;;;;;;33.87;6.30;;;27.10;50.80;;;;;;5049019;28;20199;-74
2023/08/28 04:15:08;;;;;;;20.77;5.10;;;27.10;50.80;;;;;;5067414;28;20195;-75
2023/08/28 04:17:35;;;;;;;20.17;5.17;;;27.10;50.90;;;;;;5068858;28;20212;-75
2023/08/28 04:20:10;;;;;;;27.30;5.87;;;27.10;50.90;;;;;;5062399;28;20203;-75
2023/08/28 04:22:37;;;;;;;25.13;5.60;;;27.10;50.90;;;;;;5068706;28;20263;-73
2023/08/28 04:25:05;;;;;;;24.63;5.50;;;27.10;50.90;;;;;;5068624;28;21054;-76
2023/08/28 04:27:32;;;;;;;20.60;4.97;;;27.10;50.90;;;;;;5062347;28;20216;-74
2023/08/28 04:29:59;;;;;;;24.70;5.47;;;27.10;50.90;;;;;;5048797;28;20215;-74
2023/08/28 04:32:27;;;;;;;27.80;5.33;;;27.10;50.90;;;;;;5049159;28;20576;-74
2023/08/28 04:34:54;;;;;;;48.73;7.20;;;27.10;50.90;;;;;;5048842;28;20211;-74
2023/08/28 04:37:21;;;;;;;28.57;5.97;;;27.10;50.90;;;;;;5053307;28;20285;-74
2023/08/28 04:39:48;;;;;;;23.77;5.50;;;27.00;50.90;;;;;;5059484;28;20765;-76
2023/08/28 04:42:15;;;;;;;20.47;5.57;;;27.10;51.00;;;;;;5051383;28;20208;-74
2023/08/28 04:44:42;;;;;;;30.10;6.00;;;27.10;51.00;;;;;;5062545;28;20278;-75
2023/08/28 04:47:10;;;;;;;29.10;5.90;;;27.00;50.90;;;;;;5060339;28;20523;-75
2023/08/28 04:49:38;;;;;;;25.73;5.70;;;27.00;51.30;;;;;;5066943;28;20200;-75
2023/08/28 04:52:06;;;;;;;26.47;5.33;;;27.00;51.30;;;;;;5067595;28;20676;-75
2023/08/28 04:54:33;;;;;;;27.27;5.60;;;27.00;51.10;;;;;;5068381;28;20202;-76
2023/08/28 04:57:00;;;;;;;23.50;5.20;;;27.00;51.10;;;;;;5060061;28;20290;-75
2023/08/28 04:59:27;;;;;;;27.70;5.87;;;27.00;51.00;;;;;;5061701;28;20298;-75
2023/08/28 05:01:54;;;;;;;24.63;5.37;;;27.00;51.60;;;;;;5061217;28;20227;-75
2023/08/28 05:04:21;;;;;;;22.73;5.53;;;27.00;51.00;;;;;;5060786;28;20286;-75
2023/08/28 05:06:49;;;;;;;27.83;5.57;;;27.00;50.90;;;;;;5066480;28;20199;-75
2023/08/28 05:09:16;;;;;;;30.17;5.60;;;27.00;51.00;;;;;;5067418;28;20210;-75
2023/08/28 05:11:44;;;;;;;68.73;9.00;;;27.00;50.90;;;;;;5061004;28;20203;-75
2023/08/28 05:14:11;;;;;;;25.33;5.63;;;27.00;50.90;;;;;;5068014;28;20209;-74
2023/08/28 05:16:38;;;;;;;25.17;5.70;;;27.00;51.60;;;;;;5068073;28;20225;-75
2023/08/28 05:19:05;;;;;;;33.00;6.30;;;27.00;50.90;;;;;;5064988;28;20294;-75
2023/08/28 05:21:32;;;;;;;23.90;5.77;;;27.00;50.90;;;;;;5067353;28;20196;-75
2023/08/28 05:24:01;;;;;;;44.70;7.10;;;27.00;50.90;;;;;;5061458;28;20245;-76
2023/08/28 05:26:28;;;;;;;46.90;7.50;;;27.00;51.00;;;;;;5059096;28;20206;-75
2023/08/28 05:28:54;;;;;;;24.43;5.73;;;27.00;51.00;;;;;;5053916;28;20281;-75
2023/08/28 05:31:21;;;;;;;39.67;6.87;;;26.90;51.00;;;;;;5058520;28;20278;-75
2023/08/28 05:33:48;;;;;;;25.83;5.63;;;26.90;50.90;;;;;;5047045;28;20200;-75
2023/08/28 05:36:16;;;;;;;28.20;5.73;;;26.90;51.00;;;;;;5060254;28;20253;-77
2023/08/28 05:38:43;;;;;;;25.87;5.67;;;26.90;51.00;;;;;;5063552;28;20294;-74
2023/08/28 05:41:12;;;;;;;26.37;5.63;;;26.90;51.00;;;;;;5057727;28;20253;-75
2023/08/28 05:43:39;;;;;;;45.23;7.50;;;26.90;51.00;;;;;;5047543;28;20327;-74
2023/08/28 05:46:06;;;;;;;24.67;5.83;;;26.90;51.00;;;;;;5062449;28;20282;-74
2023/08/28 05:48:33;;;;;;;25.00;5.97;;;26.90;51.00;;;;;;5055843;28;20257;-75
2023/08/28 05:51:00;;;;;;;45.97;7.63;;;26.90;51.00;;;;;;5061670;28;20210;-74
2023/08/28 05:53:29;;;;;;;22.03;5.23;;;26.90;51.00;;;;;;5053082;28;20286;-75
2023/08/28 05:55:56;;;;;;;26.37;5.53;;;26.90;51.00;;;;;;5057899;28;20298;-75
2023/08/28 05:58:24;;;;;;;35.83;6.30;;;26.80;50.90;;;;;;5075718;28;20953;-75
2023/08/28 06:00:51;;;;;;;42.57;6.97;;;26.80;51.00;;;;;;5055746;28;20204;-75
2023/08/28 06:03:18;;;;;;;47.63;7.30;;;26.80;51.00;;;;;;5065339;28;20326;-76
2023/08/28 06:05:45;;;;;;;25.50;5.77;;;26.80;51.00;;;;;;5058208;28;20288;-75
2023/08/28 06:08:12;;;;;;;30.07;6.00;;;26.80;51.00;;;;;;5061799;28;20684;-75
2023/08/28 06:10:40;;;;;;;34.43;6.23;;;26.80;51.00;;;;;;5062516;28;20235;-76
2023/08/28 06:13:07;;;;;;;55.80;8.10;;;26.80;51.00;;;;;;5048435;28;20207;-75
2023/08/28 06:15:36;;;;;;;23.63;5.47;;;26.80;51.00;;;;;;5066616;28;20238;-76
2023/08/28 06:18:04;;;;;;;37.17;6.43;;;26.80;51.10;;;;;;5066093;28;20196;-76
2023/08/28 06:20:32;;;;;;;23.23;5.60;;;26.80;51.10;;;;;;5069224;28;20694;-75
2023/08/28 06:22:59;;;;;;;17.83;4.97;;;26.80;51.70;;;;;;5065817;28;20814;-76
2023/08/28 06:25:26;;;;;;;44.67;7.43;;;26.80;51.10;;;;;;5065313;28;20196;-75
2023/08/28 06:27:53;;;;;;;24.50;5.60;;;26.80;51.10;;;;;;5069139;28;20291;-75
2023/08/28 06:30:20;;;;;;;26.20;5.43;;;26.80;51.10;;;;;;5067221;28;20214;-75
2023/08/28 06:32:48;;;;;;;40.47;6.73;;;26.80;51.10;;;;;;5066598;28;20198;-75
2023/08/28 06:35:15;;;;;;;33.70;6.10;;;26.80;51.10;;;;;;5068005;28;20215;-74
2023/08/28 06:37:42;;;;;;;28.53;5.90;;;26.70;51.10;;;;;;5060605;28;20668;-75
2023/08/28 06:40:10;;;;;;;25.23;5.53;;;26.80;51.20;;;;;;5061340;28;20204;-76
2023/08/28 06:42:36;;;;;;;28.57;5.87;;;26.80;51.20;;;;;;5052735;28;20345;-75
2023/08/28 06:45:05;;;;;;;25.93;5.70;;;26.70;51.10;;;;;;5058129;28;20204;-75
2023/08/28 06:47:31;;;;;;;45.00;7.77;;;26.70;51.20;;;;;;5069460;28;20288;-74
2023/08/28 06:50:00;;;;;;;24.23;5.40;;;26.70;51.20;;;;;;5069086;28;20286;-74
2023/08/28 06:52:27;;;;;;;30.30;6.17;;;26.70;51.20;;;;;;5058458;28;20208;-78
2023/08/28 06:54:54;;;;;;;27.47;5.60;;;26.70;51.20;;;;;;5054248;28;20207;-75
2023/08/28 06:57:21;;;;;;;26.63;5.73;;;26.70;51.20;;;;;;5070657;28;20203;-76
2023/08/28 06:59:48;;;;;;;42.60;6.73;;;26.80;51.30;;;;;;5068484;28;20223;-75
2023/08/28 07:02:15;;;;;;;21.73;5.10;;;26.70;51.20;;;;;;5054333;28;20220;-75
2023/08/28 07:04:42;;;;;;;38.93;6.67;;;26.70;51.30;;;;;;5058713;28;20235;-76
2023/08/28 07:07:11;;;;;;;23.97;5.57;;;26.80;51.30;;;;;;5056353;28;20295;-76
2023/08/28 07:09:39;;;;;;;50.83;7.50;;;26.80;52.00;;;;;;5050512;28;20208;-76
2023/08/28 07:12:06;;;;;;;29.93;5.70;;;26.80;51.40;;;;;;5063907;28;20679;-75
2023/08/28 07:14:33;;;;;;;70.50;9.40;;;26.80;51.40;;;;;;5070404;28;20199;-76
2023/08/28 07:17:01;;;;;;;31.80;6.30;;;26.80;51.40;;;;;;5057662;28;20236;-75
2023/08/28 07:19:28;;;;;;;26.70;5.47;;;26.80;51.40;;;;;;5050292;28;20200;-74
2023/08/28 07:21:59;;;;;;;30.00;6.47;;;26.80;51.40;;;;;;5054800;28;20603;-71
2023/08/28 07:24:28;;;;;;;28.13;5.60;;;26.80;51.40;;;;;;5068081;28;20210;-69
2023/08/28 07:26:54;;;;;;;33.00;6.87;;;26.80;51.40;;;;;;5065948;28;20227;-72
2023/08/28 07:29:21;;;;;;;23.07;5.67;;;26.80;51.50;;;;;;5062651;28;20231;-74
2023/08/28 07:31:48;;;;;;;31.80;6.67;;;26.80;52.10;;;;;;5067582;28;20201;-75
2023/08/28 07:34:15;;;;;;;40.50;6.73;;;26.90;51.60;;;;;;5062852;28;20298;-74
2023/08/28 07:36:44;;;;;;;47.20;7.77;;;26.90;51.60;;;;;;5050283;28;20291;-75
2023/08/28 07:39:11;;;;;;;23.10;5.47;;;26.90;51.60;;;;;;5070065;28;20203;-75
2023/08/28 07:41:39;;;;;;;23.43;5.53;;;26.90;51.70;;;;;;5067363;28;20648;-73
2023/08/28 07:44:06;;;;;;;24.50;5.43;;;26.90;51.60;;;;;;5055032;28;20238;-73
2023/08/28 07:46:33;;;;;;;26.73;5.67;;;26.90;52.10;;;;;;5049140;28;20673;-75
2023/08/28 07:49:00;;;;;;;35.93;6.50;;;27.00;51.50;;;;;;5064704;28;20211;-76
2023/08/28 07:51:27;;;;;;;25.07;5.67;;;27.00;51.50;;;;;;5068935;28;20719;-74
2023/08/28 07:53:55;;;;;;;32.93;6.47;;;27.00;51.40;;;;;;5068223;28;20201;-74
2023/08/28 07:56:22;;;;;;;25.67;5.43;;;27.00;51.40;;;;;;5068252;28;20206;-75
2023/08/28 07:58:51;;;;;;;48.03;7.73;;;27.00;51.30;;;;;;5059624;28;20302;-79
2023/08/28 08:01:18;;;;;;;36.33;6.77;;;27.00;51.30;;;;;;5062980;28;20207;-72
2023/08/28 08:03:45;;;;;;;29.10;6.00;;;27.00;51.30;;;;;;5066565;28;20215;-71
2023/08/28 08:06:12;;;;;;;37.27;6.67;;;27.00;51.30;;;;;;5067634;28;20213;-76
2023/08/28 08:08:39;;;;;;;26.43;5.77;;;27.00;51.30;;;;;;5056446;28;20683;-75
2023/08/28 08:11:06;;;;;;;54.17;7.87;;;27.00;51.30;;;;;;5062908;28;20294;-73
2023/08/28 08:13:33;;;;;;;24.07;5.53;;;27.00;51.30;;;;;;5068299;28;20290;-73
2023/08/28 08:16:01;;;;;;;27.90;5.57;;;27.00;51.30;;;;;;5069074;28;20771;-74
2023/08/28 08:18:28;;;;;;;28.40;5.90;;;27.00;51.30;;;;;;5069447;28;20238;-73
2023/08/28 08:20:55;;;;;;;32.03;6.07;;;27.00;51.30;;;;;;5069366;28;20282;-73
2023/08/28 08:23:22;;;;;;;23.47;5.03;;;27.00;51.30;;;;;;5068910;28;20289;-73
2023/08/28 08:25:48;;;;;;;34.23;6.37;;;27.00;51.30;;;;;;5060260;28;20218;-74
2023/08/28 08:28:16;;;;;;;30.13;5.87;;;27.00;51.40;;;;;;5048677;28;20200;-73
2023/08/28 08:30:43;;;;;;;20.33;4.93;;;27.00;51.40;;;;;;5048787;28;20200;-73
2023/08/28 08:33:11;;;;;;;28.63;5.87;;;27.00;51.40;;;;;;5059605;28;20295;-73
2023/08/28 08:35:38;;;;;;;23.30;5.33;;;27.10;51.40;;;;;;5052153;28;20291;-73
2023/08/28 08:38:05;;;;;;;25.20;5.47;;;27.00;51.40;;;;;;5064546;28;20215;-73
2023/08/28 08:40:36;;;;;;;22.20;5.10;;;27.00;51.40;;;;;;5048980;28;20196;-74
2023/08/28 08:43:03;;;;;;;32.87;5.80;;;27.00;51.40;;;;;;5047836;28;20226;-73
2023/08/28 08:45:30;;;;;;;22.80;4.90;;;27.10;51.50;;;;;;5048438;28;20644;-73
2023/08/28 08:47:59;;;;;;;28.73;5.67;;;27.10;51.50;;;;;;5048704;28;20682;-76
2023/08/28 08:50:29;;;;;;;38.10;6.80;;;27.10;51.50;;;;;;5049974;28;20287;-74
2023/08/28 08:53:02;;;;;;;30.40;5.70;;;27.10;51.50;;;;;;5054888;28;20202;-72
2023/08/28 08:55:40;;;;;;;29.53;5.50;;;27.10;51.50;;;;;;5048735;28;20898;-74
2023/08/28 08:58:10;;;;;;;33.10;5.97;;;27.10;51.60;;;;;;5049094;28;20219;-73
2023/08/28 09:00:39;;;;;;;19.13;4.67;;;27.10;51.50;;;;;;5054992;28;20188;-73
2023/08/28 09:03:07;;;;;;;85.30;10.37;;;27.10;51.50;;;;;;5057005;28;20230;-73
2023/08/28 09:05:37;;;;;;;58.33;8.17;;;27.10;51.50;;;;;;5053011;28;20288;-74
2023/08/28 09:08:06;;;;;;;31.07;5.70;;;27.10;51.60;;;;;;5050233;28;20738;-75
2023/08/28 09:10:34;;;;;;;44.10;6.63;;;27.20;51.60;;;;;;5047732;28;20633;-73
2023/08/28 09:13:01;;;;;;;23.23;5.17;;;27.20;51.60;;;;;;5048358;28;20220;-75
2023/08/28 09:15:28;;;;;;;22.37;5.40;;;27.20;51.60;;;;;;5047955;28;20203;-73
2023/08/28 09:17:55;;;;;;;38.27;6.67;;;27.20;51.60;;;;;;5057614;28;20196;-74
2023/08/28 09:20:22;;;;;;;40.97;6.57;;;27.20;51.60;;;;;;5049270;28;20286;-74
2023/08/28 09:22:53;;;;;;;25.33;5.50;;;27.30;51.60;;;;;;5051168;28;20861;-74
2023/08/28 09:25:22;;;;;;;27.93;5.37;;;27.30;51.70;;;;;;5047738;28;20196;-74
2023/08/28 09:27:50;;;;;;;29.43;5.50;;;27.30;51.60;;;;;;5062099;28;20207;-76
2023/08/28 09:30:28;;;;;;;47.13;6.97;;;27.30;51.60;;;;;;5067526;28;20402;-75
2023/08/28 09:32:55;;;;;;;43.97;6.63;;;27.30;51.60;;;;;;5066949;28;20302;-74
2023/08/28 09:35:22;;;;;;;29.37;5.83;;;27.30;51.50;;;;;;5063006;28;20322;-74
2023/08/28 09:37:58;;;;;;;46.17;6.93;;;27.30;51.60;;;;;;5047731;28;20287;-74
2023/08/28 09:40:30;;;;;;;36.47;6.40;;;27.30;51.60;;;;;;5048779;28;20282;-74
2023/08/28 09:42:58;;;;;;;25.00;5.43;;;27.30;51.50;;;;;;5047751;28;20210;-74
2023/08/28 09:45:30;;;;;;;44.13;7.67;;;27.40;52.20;;;;;;5048153;28;20275;-74
2023/08/28 09:47:57;;;;;;;37.27;6.33;;;27.40;51.60;;;;;;5047600;28;20740;-74
2023/08/28 09:50:26;;;;;;;61.77;8.57;;;27.30;51.60;;;;;;5063015;28;20295;-74
2023/08/28 09:54:39;;;;;;;27.17;5.40;;;27.40;51.10;;;;;;5079004;27;20974;-75
2023/08/28 09:57:15;;;;;;;26.07;5.00;;;27.40;51.70;;;;;;5060564;28;20234;-75
2023/08/28 09:59:42;;;;;;;26.37;5.27;;;27.40;51.70;;;;;;5058201;28;20287;-75
2023/08/28 10:02:12;;;;;;;19.17;4.53;;;27.40;51.70;;;;;;5060396;28;20212;-75
2023/08/28 10:04:41;;;;;;;30.27;5.67;;;27.40;51.70;;;;;;5045349;28;20628;-75
2023/08/28 10:07:08;;;;;;;27.10;5.33;;;27.40;51.70;;;;;;5048727;28;20222;-74
2023/08/28 10:09:39;;;;;;;25.20;5.37;;;27.50;51.80;;;;;;5057827;28;20200;-76
2023/08/28 10:12:09;;;;;;;19.43;4.77;;;27.50;51.80;;;;;;5053324;28;20207;-68
2023/08/28 10:14:36;;;;;;;33.07;6.30;;;27.50;51.80;;;;;;5059344;28;20311;-71
2023/08/28 10:17:08;;;;;;;26.40;5.27;;;27.60;51.90;;;;;;5058814;28;20226;-71
2023/08/28 10:19:41;;;;;;;43.13;7.07;;;27.60;52.00;;;;;;5049250;28;20195;-69
2023/08/28 10:22:09;;;;;;;24.13;5.43;;;27.60;52.00;;;;;;5052099;28;20744;-74
2023/08/28 10:24:40;;;;;;;30.47;5.90;;;27.70;52.00;;;;;;5053258;28;20200;-76
2023/08/28 10:27:10;;;;;;;33.17;6.55;;;27.70;51.80;;;;;;5062114;28;20448;-72
2023/08/28 10:29:38;;;;;;;53.17;7.93;;;27.80;52.00;;;;;;5059111;28;20231;-74
2023/08/28 10:32:09;;;;;;;36.87;6.30;;;27.80;51.90;;;;;;5061358;28;20204;-74
2023/08/28 10:34:37;;;;;;;45.77;7.20;;;27.90;51.80;;;;;;5050823;28;20322;-76
2023/08/28 10:37:06;;;;;;;28.80;5.77;;;28.00;51.70;;;;;;5063927;28;20202;-67
2023/08/28 10:39:33;;;;;;;31.47;6.03;;;28.10;51.60;;;;;;5055583;28;20286;-71
2023/08/28 10:42:00;;;;;;;33.80;5.90;;;28.30;51.60;;;;;;5055078;28;20209;-75
2023/08/28 10:44:29;;;;;;;28.33;5.90;;;28.30;51.50;;;;;;5044700;28;20206;-78
2023/08/28 10:46:56;;;;;;;52.27;7.93;;;28.30;51.30;;;;;;5044152;28;20555;-70
2023/08/28 10:49:23;;;;;;;28.87;5.83;;;28.40;51.30;;;;;;5060726;28;20326;-73
2023/08/28 10:52:03;;;;;;;48.00;7.47;;;28.50;51.10;;;;;;5049735;28;20204;-71
2023/08/28 10:54:37;;;;;;;27.77;5.60;;;28.50;51.00;;;;;;5060764;28;20321;-71
2023/08/28 10:57:09;;;;;;;21.47;5.23;;;28.50;50.90;;;;;;5063915;28;20306;-72
2023/08/28 10:59:44;;;;;;;28.43;5.87;;;28.50;50.90;;;;;;5057654;28;20227;-71
2023/08/28 11:02:12;;;;;;;23.10;5.07;;;28.60;50.80;;;;;;5049853;28;20195;-72
2023/08/28 11:04:40;;;;;;;31.07;5.87;;;28.60;50.80;;;;;;5045840;28;20882;-74
2023/08/28 11:07:34;;;;;;;30.07;6.17;;;28.50;50.80;;;;;;5043372;28;20188;-72
2023/08/28 11:10:17;;;;;;;32.57;6.40;;;28.50;51.40;;;;;;5047638;28;20303;-71
2023/08/28 11:12:52;;;;;;;30.33;5.93;;;28.50;50.60;;;;;;5050817;28;20206;-71
2023/08/28 11:15:28;;;;;;;30.67;6.10;;;28.50;50.60;;;;;;5050555;28;20199;-71
2023/08/28 11:18:18;;;;;;;28.30;6.07;;;28.50;50.70;;;;;;5050868;28;20238;-71
2023/08/28 11:20:47;;;;;;;39.67;7.27;;;28.50;50.60;;;;;;5050060;28;20292;-71
2023/08/28 11:23:21;;;;;;;34.40;6.50;;;28.50;50.70;;;;;;5049496;28;20216;-72
2023/08/28 11:25:48;;;;;;;25.13;5.60;;;28.40;50.60;;;;;;5050117;28;20289;-71
2023/08/28 11:28:30;;;;;;;24.70;5.23;;;28.40;50.60;;;;;;5047477;28;20291;-71
2023/08/28 11:31:03;;;;;;;30.13;5.83;;;28.30;50.50;;;;;;5050351;28;20235;-71
2023/08/28 11:33:37;;;;;;;30.13;5.93;;;28.40;50.60;;;;;;5049970;28;20585;-72
2023/08/28 11:36:04;;;;;;;26.93;5.80;;;28.30;50.60;;;;;;5049874;28;20207;-71
2023/08/28 11:38:31;;;;;;;26.53;5.77;;;28.30;50.60;;;;;;5048868;28;20291;-71
2023/08/28 11:41:04;;;;;;;32.30;6.20;;;28.20;50.60;;;;;;5037357;28;20240;-71
2023/08/28 11:43:36;;;;;;;25.60;5.57;;;28.20;50.60;;;;;;5045038;28;20204;-70
2023/08/28 11:46:05;;;;;;;23.27;5.23;;;28.20;50.60;;;;;;5049345;28;20270;-71
2023/08/28 11:48:36;;;;;;;31.37;5.80;;;28.10;50.60;;;;;;5050024;28;20292;-71
2023/08/28 11:51:04;;;;;;;25.07;5.67;;;28.10;50.60;;;;;;5049834;28;20234;-71
2023/08/28 11:53:36;;;;;;;21.17;5.00;;;28.10;50.60;;;;;;5048894;28;20228;-71
2023/08/28 11:56:05;;;;;;;27.23;5.73;;;28.00;50.60;;;;;;5049683;28;20220;-72
2023/08/28 11:58:33;;;;;;;27.53;6.00;;;28.00;50.60;;;;;;5049745;28;20566;-71
2023/08/28 12:01:05;;;;;;;27.47;5.93;;;27.90;50.60;;;;;;5049449;28;20837;-74
2023/08/28 12:03:33;;;;;;;29.50;5.87;;;27.90;50.60;;;;;;5049411;28;20206;-71
2023/08/28 12:06:06;;;;;;;26.83;5.60;;;27.90;50.70;;;;;;5049151;28;20228;-72
2023/08/28 12:08:34;;;;;;;31.37;6.13;;;27.90;50.70;;;;;;5049553;28;20634;-71
2023/08/28 12:11:02;;;;;;;28.20;5.37;;;27.80;50.60;;;;;;5047502;28;20196;-71
2023/08/28 12:13:28;;;;;;;27.23;5.77;;;27.70;50.60;;;;;;5029598;28;20274;-71
2023/08/28 12:16:11;;;;;;;36.53;6.57;;;27.70;50.60;;;;;;5029028;28;20189;-72
2023/08/28 12:18:50;;;;;;;22.00;5.27;;;27.70;50.60;;;;;;5029961;28;20224;-71
2023/08/28 12:21:18;;;;;;;27.87;5.60;;;27.70;50.70;;;;;;5029414;28;20712;-72
2023/08/28 12:23:47;;;;;;;41.33;6.90;;;27.70;50.70;;;;;;5041307;28;20646;-73
2023/08/28 12:26:14;;;;;;;33.00;6.20;;;27.60;50.70;;;;;;5049119;28;20210;-71
2023/08/28 12:28:42;;;;;;;29.43;5.70;;;27.50;50.70;;;;;;5048937;28;20204;-71
2023/08/28 12:31:09;;;;;;;35.10;6.50;;;27.50;50.80;;;;;;5048846;28;20204;-72
2023/08/28 12:33:40;;;;;;;30.03;6.07;;;27.50;50.80;;;;;;5047719;28;20231;-72
2023/08/28 12:36:08;;;;;;;33.87;6.17;;;27.50;50.80;;;;;;5048726;28;20286;-71
2023/08/28 12:38:48;;;;;;;30.33;6.23;;;27.40;50.80;;;;;;5048902;28;20200;-71
2023/08/28 12:41:15;;;;;;;31.67;6.00;;;27.40;50.90;;;;;;5048549;28;20211;-71
2023/08/28 12:43:42;;;;;;;30.10;5.87;;;27.40;50.90;;;;;;5048691;28;20216;-71